Time,TemperatureF,DewpointF,PressureIn,WindDirection,WindDirectionDegrees,WindSpeedMPH,WindSpeedGustMPH,Humidity,HourlyPrecipIn,Conditions,Clouds,dailyrainin,SolarRadiationWatts/m^2,SoftwareType,DateUTC
2013-11-16 00:09:00,48.7,44.0,29.79,WSW,239,0.0,0.0,83,0.00,,,0.00,0,weatherlink.com 1.10,2013-11-16 08:09:00,
2013-11-16 00:25:00,48.5,44.0,29.78,WSW,239,0.0,0.0,84,0.00,,,0.00,0,weatherlink.com 1.10,2013-11-16 08:25:00,
2013-11-16 00:40:00,48.3,44.0,29.77,WSW,239,0.0,0.0,85,0.00,,,0.00,0,weatherlink.com 1.10,2013-11-16 08:40:00,
2013-11-16 00:55:00,48.0,44.0,29.77,WSW,239,0.0,0.0,85,0.00,,,0.00,0,weatherlink.com 1.10,2013-11-16 08:55:00,
2013-11-16 01:10:00,47.7,43.0,29.77,WSW,239,0.0,0.0,85,0.00,,,0.00,0,weatherlink.com 1.10,2013-11-16 09:10:00,
2013-11-16 01:25:00,47.4,43.0,29.76,SW,231,0.0,0.0,86,0.00,,,0.00,0,weatherlink.com 1.10,2013-11-16 09:25:00,
2013-11-16 01:40:00,47.3,44.0,29.77,SW,231,0.0,1.0,87,0.00,,,0.00,0,weatherlink.com 1.10,2013-11-16 09:40:00,
2013-11-16 01:55:00,47.4,44.0,29.77,SW,231,0.0,0.0,88,0.00,,,0.00,0,weatherlink.com 1.10,2013-11-16 09:55:00,
2013-11-16 02:10:00,47.4,44.0,29.76,SW,230,0.0,1.0,89,0.00,,,0.00,0,weatherlink.com 1.10,2013-11-16 10:10:00,
2013-11-16 02:25:00,47.2,44.0,29.77,SW,230,0.0,1.0,89,0.00,,,0.00,0,weatherlink.com 1.10,2013-11-16 10:25:00,
2013-11-16 02:40:00,47.2,45.0,29.77,SW,230,0.0,0.0,90,0.00,,,0.00,0,weatherlink.com 1.10,2013-11-16 10:40:00,
2013-11-16 02:55:00,47.2,45.0,29.76,South,189,0.0,1.0,90,0.00,,,0.00,0,weatherlink.com 1.10,2013-11-16 10:55:00,
2013-11-16 03:25:00,47.0,44.0,29.77,South,189,0.0,0.0,90,0.00,,,0.00,0,weatherlink.com 1.10,2013-11-16 11:25:00,
2013-11-16 03:40:00,46.8,44.0,29.76,South,189,0.0,0.0,90,0.00,,,0.00,0,weatherlink.com 1.10,2013-11-16 11:40:00,
2013-11-16 03:55:00,46.5,44.0,29.77,South,189,0.0,0.0,91,0.00,,,0.00,0,weatherlink.com 1.10,2013-11-16 11:55:00,
2013-11-16 04:10:00,46.1,43.0,29.76,South,189,0.0,1.0,90,0.00,,,0.00,0,weatherlink.com 1.10,2013-11-16 12:10:00,
2013-11-16 04:25:00,45.9,44.0,29.77,South,189,0.0,1.0,91,0.00,,,0.00,0,weatherlink.com 1.10,2013-11-16 12:25:00,
2013-11-16 04:40:00,45.6,43.0,29.77,South,189,0.0,1.0,91,0.00,,,0.00,0,weatherlink.com 1.10,2013-11-16 12:40:00,
2013-11-16 04:55:00,45.5,43.0,29.78,South,189,0.0,0.0,91,0.00,,,0.00,0,weatherlink.com 1.10,2013-11-16 12:55:00,
2013-11-16 05:10:00,45.4,43.0,29.78,South,189,0.0,0.0,91,0.00,,,0.00,0,weatherlink.com 1.10,2013-11-16 13:10:00,
2013-11-16 05:25:00,45.2,43.0,29.77,South,189,0.0,0.0,92,0.00,,,0.00,0,weatherlink.com 1.10,2013-11-16 13:25:00,
2013-11-16 05:40:00,45.2,43.0,29.78,South,189,0.0,0.0,92,0.00,,,0.00,0,weatherlink.com 1.10,2013-11-16 13:40:00,
2013-11-16 05:55:00,45.4,44.0,29.79,South,189,0.0,0.0,93,0.00,,,0.00,0,weatherlink.com 1.10,2013-11-16 13:55:00,
2013-11-16 06:10:00,45.6,44.0,29.78,South,189,0.0,0.0,93,0.00,,,0.00,0,weatherlink.com 1.10,2013-11-16 14:10:00,
2013-11-16 06:25:00,45.6,44.0,29.79,South,189,0.0,0.0,93,0.00,,,0.00,0,weatherlink.com 1.10,2013-11-16 14:25:00,
2013-11-16 06:40:00,45.7,44.0,29.80,South,189,0.0,0.0,93,0.00,,,0.00,0,weatherlink.com 1.10,2013-11-16 14:40:00,
2013-11-16 06:55:00,45.6,44.0,29.80,South,189,0.0,0.0,93,0.00,,,0.00,0,weatherlink.com 1.10,2013-11-16 14:55:00,
2013-11-16 07:10:00,45.4,44.0,29.81,South,189,0.0,0.0,93,0.00,,,0.00,12,weatherlink.com 1.10,2013-11-16 15:10:00,
2013-11-16 07:25:00,45.2,43.0,29.81,South,189,0.0,0.0,93,0.00,,,0.00,21,weatherlink.com 1.10,2013-11-16 15:25:00,
2013-11-16 07:40:00,45.3,43.0,29.82,South,189,0.0,0.0,93,0.00,,,0.00,28,weatherlink.com 1.10,2013-11-16 15:40:00,
2013-11-16 07:55:00,45.9,44.0,29.82,South,190,0.0,2.0,94,0.00,,,0.00,32,weatherlink.com 1.10,2013-11-16 15:55:00,
2013-11-16 08:10:00,46.3,45.0,29.82,South,190,0.0,1.0,94,0.00,,,0.00,35,weatherlink.com 1.10,2013-11-16 16:10:00,
2013-11-16 08:25:00,46.8,45.0,29.83,South,190,0.0,1.0,94,0.00,,,0.00,39,weatherlink.com 1.10,2013-11-16 16:25:00,
2013-11-16 08:40:00,47.3,45.0,29.83,East,96,0.0,2.0,92,0.00,,,0.00,40,weatherlink.com 1.10,2013-11-16 16:40:00,
2013-11-16 08:55:00,48.1,44.0,29.83,WSW,238,2.0,2.0,87,0.00,,,0.00,42,weatherlink.com 1.10,2013-11-16 16:55:00,
2013-11-16 09:10:00,49.7,43.0,29.84,WSW,244,0.0,2.0,79,0.00,,,0.00,93,weatherlink.com 1.10,2013-11-16 17:10:00,
2013-11-16 09:25:00,50.9,41.0,29.84,WSW,257,3.0,3.0,69,0.00,,,0.00,313,weatherlink.com 1.10,2013-11-16 17:25:00,
2013-11-16 09:40:00,51.9,40.0,29.84,West,277,0.0,5.0,65,0.00,,,0.00,47,weatherlink.com 1.10,2013-11-16 17:40:00,
2013-11-16 09:56:00,52.6,41.0,29.84,West,273,1.0,4.0,64,0.00,,,0.00,49,weatherlink.com 1.10,2013-11-16 17:56:00,
2013-11-16 10:11:00,53.2,40.0,29.85,WNW,283,4.0,8.0,62,0.00,,,0.00,46,weatherlink.com 1.10,2013-11-16 18:11:00,
2013-11-16 10:26:00,53.8,40.0,29.85,West,267,4.0,8.0,61,0.00,,,0.00,58,weatherlink.com 1.10,2013-11-16 18:26:00,
2013-11-16 10:41:00,54.3,41.0,29.85,West,269,3.0,6.0,61,0.00,,,0.00,91,weatherlink.com 1.10,2013-11-16 18:41:00,
2013-11-16 10:56:00,54.7,41.0,29.85,West,277,7.0,8.0,60,0.00,,,0.00,102,weatherlink.com 1.10,2013-11-16 18:56:00,
2013-11-16 11:11:00,55.4,41.0,29.84,West,259,1.0,4.0,59,0.00,,,0.00,538,weatherlink.com 1.10,2013-11-16 19:11:00,
2013-11-16 11:26:00,56.2,41.0,29.84,WNW,299,2.0,6.0,58,0.00,,,0.00,540,weatherlink.com 1.10,2013-11-16 19:26:00,
2013-11-16 11:41:00,56.7,41.0,29.83,West,273,2.0,5.0,56,0.00,,,0.00,264,weatherlink.com 1.10,2013-11-16 19:41:00,
2013-11-16 11:56:00,57.1,41.0,29.83,West,272,2.0,7.0,56,0.00,,,0.00,127,weatherlink.com 1.10,2013-11-16 19:56:00,
2013-11-16 12:11:00,57.5,41.0,29.82,West,277,3.0,6.0,55,0.00,,,0.00,104,weatherlink.com 1.10,2013-11-16 20:11:00,
2013-11-16 12:26:00,57.8,41.0,29.82,West,277,0.0,7.0,53,0.00,,,0.00,33,weatherlink.com 1.10,2013-11-16 20:26:00,
2013-11-16 12:41:00,58.3,41.0,29.82,WSW,240,1.0,5.0,52,0.00,,,0.00,63,weatherlink.com 1.10,2013-11-16 20:41:00,
2013-11-16 12:56:00,58.6,41.0,29.82,WSW,255,0.0,4.0,52,0.00,,,0.00,26,weatherlink.com 1.10,2013-11-16 20:56:00,
2013-11-16 13:11:00,59.0,43.0,29.82,West,279,1.0,6.0,55,0.00,,,0.00,28,weatherlink.com 1.10,2013-11-16 21:11:00,
2013-11-16 13:27:00,59.5,42.0,29.82,West,280,1.0,5.0,53,0.00,,,0.00,21,weatherlink.com 1.10,2013-11-16 21:27:00,
2013-11-16 13:41:00,59.8,42.0,29.82,WSW,241,2.0,4.0,53,0.00,,,0.00,21,weatherlink.com 1.10,2013-11-16 21:41:00,
2013-11-16 13:56:00,59.8,42.0,29.82,West,277,3.0,4.0,53,0.00,,,0.00,21,weatherlink.com 1.10,2013-11-16 21:56:00,
2013-11-16 14:11:00,59.8,44.0,29.82,ENE,76,0.0,4.0,56,0.00,,,0.00,19,weatherlink.com 1.10,2013-11-16 22:11:00,
2013-11-16 14:26:00,59.7,44.0,29.82,WSW,242,1.0,2.0,56,0.00,,,0.00,21,weatherlink.com 1.10,2013-11-16 22:26:00,
2013-11-16 14:41:00,59.7,45.0,29.82,SW,233,1.0,3.0,58,0.00,,,0.00,21,weatherlink.com 1.10,2013-11-16 22:41:00,
2013-11-16 14:56:00,59.7,46.0,29.82,WSW,246,0.0,3.0,61,0.00,,,0.00,18,weatherlink.com 1.10,2013-11-16 22:56:00,
2013-11-16 15:11:00,59.6,45.0,29.82,West,266,0.0,3.0,60,0.00,,,0.00,16,weatherlink.com 1.10,2013-11-16 23:11:00,
2013-11-16 15:26:00,59.4,46.0,29.83,WSW,241,0.0,3.0,61,0.00,,,0.00,14,weatherlink.com 1.10,2013-11-16 23:26:00,
2013-11-16 15:41:00,59.1,45.0,29.83,SW,223,0.0,2.0,61,0.00,,,0.00,12,weatherlink.com 1.10,2013-11-16 23:41:00,
2013-11-16 15:56:00,58.9,47.0,29.83,SW,223,0.0,2.0,64,0.00,,,0.00,11,weatherlink.com 1.10,2013-11-16 23:56:00,
2013-11-16 16:11:00,58.6,47.0,29.83,West,267,0.0,5.0,65,0.00,,,0.00,9,weatherlink.com 1.10,2013-11-17 00:11:00,
2013-11-16 16:26:00,58.2,47.0,29.83,West,266,2.0,5.0,67,0.00,,,0.00,7,weatherlink.com 1.10,2013-11-17 00:26:00,
2013-11-16 16:41:00,57.8,48.0,29.83,West,263,1.0,4.0,69,0.00,,,0.00,5,weatherlink.com 1.10,2013-11-17 00:41:00,
2013-11-16 16:56:00,57.2,48.0,29.84,West,273,2.0,7.0,72,0.00,,,0.00,0,weatherlink.com 1.10,2013-11-17 00:56:00,
2013-11-16 17:11:00,56.7,48.0,29.84,West,273,4.0,4.0,73,0.00,,,0.00,0,weatherlink.com 1.10,2013-11-17 01:11:00,
2013-11-16 17:26:00,56.3,48.0,29.85,West,275,3.0,7.0,75,0.00,,,0.00,0,weatherlink.com 1.10,2013-11-17 01:26:00,
2013-11-16 17:41:00,56.0,49.0,29.86,West,274,2.0,7.0,76,0.00,,,0.00,0,weatherlink.com 1.10,2013-11-17 01:41:00,
2013-11-16 17:56:00,55.7,48.0,29.86,West,273,1.0,6.0,76,0.00,,,0.00,0,weatherlink.com 1.10,2013-11-17 01:56:00,
2013-11-16 18:11:00,55.4,48.0,29.86,West,278,5.0,7.0,77,0.00,,,0.00,0,weatherlink.com 1.10,2013-11-17 02:11:00,
2013-11-16 18:26:00,55.1,48.0,29.86,West,269,2.0,5.0,78,0.00,,,0.00,0,weatherlink.com 1.10,2013-11-17 02:26:00,
2013-11-16 18:41:00,54.6,48.0,29.87,West,277,3.0,5.0,79,0.00,,,0.00,0,weatherlink.com 1.10,2013-11-17 02:41:00,
2013-11-16 18:56:00,54.2,49.0,29.87,West,271,2.0,3.0,81,0.00,,,0.00,0,weatherlink.com 1.10,2013-11-17 02:56:00,
2013-11-16 19:11:00,53.7,48.0,29.88,West,271,1.0,2.0,81,0.00,,,0.00,0,weatherlink.com 1.10,2013-11-17 03:11:00,
2013-11-16 19:26:00,53.3,48.0,29.88,West,272,1.0,3.0,83,0.00,,,0.00,0,weatherlink.com 1.10,2013-11-17 03:26:00,
2013-11-16 19:41:00,52.9,48.0,29.89,West,272,1.0,3.0,84,0.00,,,0.00,0,weatherlink.com 1.10,2013-11-17 03:41:00,
2013-11-16 19:56:00,52.6,48.0,29.89,West,272,0.0,3.0,85,0.00,,,0.00,0,weatherlink.com 1.10,2013-11-17 03:56:00,
2013-11-16 20:11:00,52.3,48.0,29.89,West,272,1.0,2.0,85,0.00,,,0.00,0,weatherlink.com 1.10,2013-11-17 04:11:00,
2013-11-16 20:26:00,52.0,48.0,29.89,West,272,0.0,3.0,86,0.00,,,0.00,0,weatherlink.com 1.10,2013-11-17 04:26:00,
2013-11-16 20:41:00,51.7,48.0,29.89,West,271,1.0,3.0,87,0.00,,,0.00,0,weatherlink.com 1.10,2013-11-17 04:41:00,
2013-11-16 20:56:00,51.7,48.0,29.90,West,280,1.0,5.0,87,0.00,,,0.00,0,weatherlink.com 1.10,2013-11-17 04:56:00,
2013-11-16 21:11:00,51.8,48.0,29.90,West,269,0.0,2.0,87,0.00,,,0.00,0,weatherlink.com 1.10,2013-11-17 05:11:00,
2013-11-16 21:27:00,51.7,48.0,29.90,West,269,0.0,0.0,86,0.00,,,0.00,0,weatherlink.com 1.10,2013-11-17 05:27:00,
2013-11-16 21:42:00,51.1,47.0,29.91,West,269,0.0,0.0,85,0.00,,,0.00,0,weatherlink.com 1.10,2013-11-17 05:42:00,
2013-11-16 21:57:00,50.5,46.0,29.91,West,269,0.0,0.0,85,0.00,,,0.00,0,weatherlink.com 1.10,2013-11-17 05:57:00,
2013-11-16 22:12:00,50.0,46.0,29.91,West,269,0.0,0.0,86,0.00,,,0.00,0,weatherlink.com 1.10,2013-11-17 06:12:00,
2013-11-16 22:27:00,49.7,46.0,29.91,West,269,0.0,0.0,87,0.00,,,0.00,0,weatherlink.com 1.10,2013-11-17 06:27:00,
2013-11-16 22:42:00,49.4,46.0,29.91,West,269,0.0,0.0,88,0.00,,,0.00,0,weatherlink.com 1.10,2013-11-17 06:42:00,
2013-11-16 22:57:00,49.1,46.0,29.91,West,269,0.0,0.0,89,0.00,,,0.00,0,weatherlink.com 1.10,2013-11-17 06:57:00,
2013-11-16 23:12:00,49.1,46.0,29.92,West,269,0.0,1.0,90,0.00,,,0.00,0,weatherlink.com 1.10,2013-11-17 07:12:00,
2013-11-16 23:27:00,49.0,46.0,29.92,West,269,0.0,1.0,90,0.00,,,0.00,0,weatherlink.com 1.10,2013-11-17 07:27:00,
2013-11-16 23:42:00,48.9,46.0,29.92,West,269,0.0,0.0,90,0.00,,,0.00,0,weatherlink.com 1.10,2013-11-17 07:42:00,
2013-11-16 23:57:00,48.7,46.0,29.93,West,269,0.0,0.0,91,0.00,,,0.00,0,weatherlink.com 1.10,2013-11-17 07:57:00,